createdAt,value
2019-03-31T00:00:49.873Z,59.98
2019-03-31T00:03:54.452Z,59.02
2019-03-31T00:06:59.816Z,59.88
2019-03-31T00:10:04.876Z,60.02
2019-03-31T00:13:09.312Z,60.17
2019-03-31T00:16:13.818Z,60.29
2019-03-31T00:19:18.255Z,59.10
2019-03-31T00:22:23.444Z,59.29
2019-03-31T00:25:28.078Z,59.65
2019-03-31T00:28:36.134Z,59.95
2019-03-31T00:31:41.419Z,60.20
2019-03-31T00:34:46.058Z,60.34
2019-03-31T00:37:50.784Z,60.80
2019-03-31T00:40:55.283Z,61.49
2019-03-31T00:43:59.799Z,61.15
2019-03-31T00:47:04.453Z,62.08
2019-03-31T00:50:09.978Z,62.43
2019-03-31T00:53:14.487Z,63.35
2019-03-31T00:56:19.245Z,63.38
2019-03-31T00:59:23.771Z,63.77
2019-03-31T01:02:30.908Z,64.20
2019-03-31T01:05:38.525Z,63.95
2019-03-31T01:08:43.042Z,63.89
2019-03-31T01:11:48.951Z,63.76
2019-03-31T01:14:53.726Z,64.22
2019-03-31T01:17:58.739Z,64.56
2019-03-31T01:21:03.263Z,64.20
2019-03-31T01:24:08.076Z,64.69
2019-03-31T01:27:13.181Z,64.47
2019-03-31T01:30:18.874Z,64.03
2019-03-31T01:33:24.116Z,64.62
2019-03-31T01:36:28.714Z,65.01
2019-03-31T01:39:34.996Z,65.33
2019-03-31T01:42:40.104Z,64.20
2019-03-31T01:45:44.678Z,64.89
2019-03-31T01:48:49.497Z,65.11
2019-03-31T01:51:54.010Z,65.77
2019-03-31T01:54:58.685Z,66.13
2019-03-31T01:58:03.324Z,66.25
2019-03-31T02:01:11.080Z,66.86
2019-03-31T02:04:16.322Z,68.11
2019-03-31T02:07:20.950Z,68.92
2019-03-31T02:10:25.579Z,68.90
2019-03-31T02:13:30.035Z,70.54
2019-03-31T02:16:34.938Z,70.33
2019-03-31T02:19:39.430Z,70.03
2019-03-31T02:22:43.930Z,69.60
2019-03-31T02:25:48.844Z,69.39
2019-03-31T02:28:53.307Z,69.97
2019-03-31T02:31:59.610Z,69.84
2019-03-31T02:35:04.955Z,69.60
2019-03-31T02:38:09.919Z,69.76
2019-03-31T02:41:15.325Z,71.02
2019-03-31T02:44:19.651Z,70.67
2019-03-31T02:47:24.241Z,69.90
2019-03-31T02:50:49.345Z,70.30
2019-03-31T02:53:54.423Z,70.18
2019-03-31T02:56:59.802Z,70.12
2019-03-31T03:00:05.201Z,70.02
2019-03-31T03:03:11.001Z,69.84
2019-03-31T03:06:19.804Z,70.08
2019-03-31T03:09:26.465Z,70.81
2019-03-31T03:12:35.476Z,71.57
2019-03-31T03:16:04.814Z,71.35
2019-03-31T03:19:10.246Z,70.93
2019-03-31T03:22:14.890Z,70.28
2019-03-31T03:25:19.929Z,69.96
2019-03-31T03:28:24.374Z,70.15
2019-03-31T03:31:28.913Z,70.10
2019-03-31T03:34:34.048Z,70.00
2019-03-31T03:37:38.891Z,70.68
2019-03-31T03:40:43.305Z,71.01
2019-03-31T03:43:55.989Z,71.96
2019-03-31T03:46:54.607Z,71.78
2019-03-31T03:49:59.085Z,71.57
2019-03-31T03:53:03.561Z,72.15
2019-03-31T03:56:08.465Z,72.55
2019-03-31T03:59:13.048Z,72.35
2019-03-31T04:02:17.626Z,72.86
2019-03-31T04:05:22.188Z,72.75
2019-03-31T04:08:26.641Z,72.79
2019-03-31T04:11:31.195Z,73.01
2019-03-31T04:14:35.729Z,72.77
2019-03-31T04:17:40.674Z,72.47
2019-03-31T04:20:45.676Z,72.47
2019-03-31T04:23:50.561Z,72.82
2019-03-31T04:26:55.778Z,73.09
2019-03-31T04:30:00.901Z,73.26
2019-03-31T04:33:05.369Z,73.44
2019-03-31T04:36:10.269Z,73.76
2019-03-31T04:39:15.389Z,73.38
2019-03-31T04:42:19.947Z,73.42
2019-03-31T04:45:25.382Z,73.73
2019-03-31T04:48:30.007Z,73.71
2019-03-31T04:51:34.831Z,74.04
2019-03-31T04:54:39.287Z,74.25
2019-03-31T04:57:44.069Z,74.29
2019-03-31T05:00:48.438Z,73.70
2019-03-31T05:04:04.649Z,73.13
2019-03-31T05:06:59.877Z,73.15
2019-03-31T05:10:04.552Z,72.93
2019-03-31T05:13:09.721Z,73.05
2019-03-31T05:16:14.189Z,73.54
2019-03-31T05:19:18.633Z,73.47
2019-03-31T05:22:23.139Z,74.25
2019-03-31T05:25:27.931Z,74.52
2019-03-31T05:28:32.501Z,74.12
2019-03-31T05:31:36.879Z,73.79
2019-03-31T05:34:41.707Z,74.16
2019-03-31T05:37:51.285Z,74.95
2019-03-31T05:40:52.541Z,74.67
2019-03-31T05:44:05.619Z,74.86
2019-03-31T05:47:03.520Z,75.21
2019-03-31T05:50:08.505Z,75.66
2019-03-31T05:53:13.852Z,75.76
2019-03-31T05:56:18.979Z,74.77
2019-03-31T05:59:23.528Z,74.99
2019-03-31T06:02:28.363Z,75.21
2019-03-31T06:05:33.432Z,75.15
2019-03-31T06:08:38.274Z,75.05
2019-03-31T06:11:42.774Z,75.08
2019-03-31T06:14:47.627Z,75.27
2019-03-31T06:17:52.132Z,75.08
2019-03-31T06:20:56.674Z,74.57
2019-03-31T06:24:01.550Z,73.74
2019-03-31T06:27:06.419Z,74.23
2019-03-31T06:30:11.688Z,73.67
2019-03-31T06:33:16.314Z,72.89
2019-03-31T06:36:20.791Z,72.65
2019-03-31T06:39:25.300Z,72.26
2019-03-31T06:42:29.873Z,71.66
2019-03-31T06:45:34.308Z,71.14
2019-03-31T06:48:38.940Z,69.73
2019-03-31T06:51:44.166Z,69.54
2019-03-31T06:54:48.562Z,69.12
2019-03-31T06:57:53.364Z,68.58
2019-03-31T07:00:57.810Z,66.49
2019-03-31T07:04:02.827Z,66.22
2019-03-31T07:07:07.416Z,65.36
2019-03-31T07:10:12.181Z,65.75
2019-03-31T07:13:16.848Z,65.45
2019-03-31T07:16:22.084Z,65.22
2019-03-31T07:19:27.114Z,64.50
2019-03-31T07:22:31.967Z,63.77
2019-03-31T07:25:37.292Z,63.59
2019-03-31T07:28:41.863Z,62.89
2019-03-31T07:31:46.651Z,62.08
2019-03-31T07:34:51.686Z,61.82
2019-03-31T07:37:56.637Z,61.49
2019-03-31T07:41:11.947Z,61.21
2019-03-31T07:44:07.314Z,59.87
2019-03-31T07:47:11.808Z,59.30
2019-03-31T07:50:17.200Z,58.30
2019-03-31T07:53:21.633Z,58.85
2019-03-31T07:56:26.143Z,58.69
2019-03-31T07:59:31.006Z,57.94
2019-03-31T08:02:35.844Z,57.83
2019-03-31T08:05:40.322Z,57.63
2019-03-31T08:08:45.601Z,58.19
2019-03-31T08:11:50.141Z,57.68
2019-03-31T08:14:55.941Z,54.51
2019-03-31T08:18:00.484Z,54.28
2019-03-31T08:21:05.602Z,53.90
2019-03-31T08:24:10.065Z,53.48
2019-03-31T08:27:17.776Z,52.52
2019-03-31T08:30:22.348Z,51.17
2019-03-31T08:33:26.973Z,51.43
2019-03-31T08:36:31.380Z,50.41
2019-03-31T08:39:35.836Z,50.85
2019-03-31T08:42:40.517Z,50.26
2019-03-31T08:45:45.294Z,50.19
2019-03-31T08:48:50.130Z,50.33
2019-03-31T08:51:54.701Z,48.90
2019-03-31T08:54:59.191Z,49.18
2019-03-31T08:58:03.806Z,47.33
2019-03-31T09:01:12.206Z,49.00
2019-03-31T09:04:16.665Z,48.46
2019-03-31T09:07:21.723Z,49.83
2019-03-31T09:10:26.543Z,48.33
2019-03-31T09:13:31.478Z,47.13
2019-03-31T09:16:36.218Z,47.71
2019-03-31T09:19:40.727Z,44.89
2019-03-31T09:22:45.215Z,44.89
2019-03-31T09:25:50.128Z,44.53
2019-03-31T09:28:54.610Z,46.45
2019-03-31T09:31:59.557Z,45.36
2019-03-31T09:35:05.391Z,43.43
2019-03-31T09:38:09.923Z,43.43
2019-03-31T09:41:14.380Z,43.30
2019-03-31T09:44:19.121Z,42.49
2019-03-31T09:47:25.738Z,41.91
2019-03-31T09:50:30.396Z,41.95
2019-03-31T09:53:34.919Z,40.92
2019-03-31T09:56:39.672Z,41.45
2019-03-31T09:59:44.159Z,40.93
2019-03-31T10:02:49.192Z,40.20
2019-03-31T10:05:54.295Z,40.18
2019-03-31T10:08:59.881Z,40.73
2019-03-31T10:12:04.336Z,40.03
2019-03-31T10:15:10.360Z,39.82
2019-03-31T10:18:17.995Z,37.73
2019-03-31T10:21:24.198Z,37.03
2019-03-31T10:24:28.541Z,37.45
2019-03-31T10:27:32.952Z,37.50
2019-03-31T10:30:39.424Z,38.84
2019-03-31T10:33:44.242Z,37.15
2019-03-31T10:36:48.927Z,37.56
2019-03-31T10:39:53.293Z,36.84
2019-03-31T10:42:58.298Z,35.89
2019-03-31T10:46:03.158Z,35.62
2019-03-31T10:49:07.951Z,36.37
2019-03-31T10:52:12.470Z,35.99
2019-03-31T10:55:16.964Z,35.31
2019-03-31T10:58:21.335Z,33.05
2019-03-31T11:01:25.877Z,32.33
2019-03-31T11:04:30.592Z,31.45
2019-03-31T11:07:35.120Z,29.14
2019-03-31T11:10:39.722Z,30.21
2019-03-31T11:13:44.188Z,31.10
2019-03-31T11:16:49.283Z,26.22
2019-03-31T11:19:53.787Z,26.62
2019-03-31T11:23:03.153Z,27.59
2019-03-31T11:26:07.690Z,28.03
2019-03-31T11:29:12.301Z,28.85
2019-03-31T11:32:16.865Z,27.24
2019-03-31T11:35:21.326Z,28.48
2019-03-31T11:38:25.693Z,26.96
2019-03-31T11:41:30.331Z,28.54
2019-03-31T11:44:34.744Z,28.49
2019-03-31T11:47:39.380Z,30.01
2019-03-31T11:50:43.788Z,30.05
2019-03-31T11:53:48.153Z,29.72
2019-03-31T11:56:52.558Z,30.05
2019-03-31T11:59:57.356Z,30.07
2019-03-31T12:03:01.707Z,30.33
2019-03-31T12:06:06.191Z,30.23
2019-03-31T12:09:10.856Z,29.91
2019-03-31T12:12:15.372Z,29.97
2019-03-31T12:15:19.909Z,29.22
2019-03-31T12:18:24.489Z,29.94
2019-03-31T12:21:28.859Z,30.15
2019-03-31T12:24:33.625Z,29.07
2019-03-31T12:27:38.257Z,30.02
2019-03-31T12:30:42.785Z,28.33
2019-03-31T12:33:47.220Z,28.90
2019-03-31T12:36:51.742Z,28.76
2019-03-31T12:39:57.267Z,28.06
2019-03-31T12:43:02.281Z,27.33
2019-03-31T12:46:06.760Z,24.28
2019-03-31T12:49:11.176Z,24.47
2019-03-31T12:52:15.687Z,25.34
2019-03-31T12:55:20.206Z,25.74
2019-03-31T12:58:25.405Z,26.41
2019-03-31T13:01:30.002Z,26.99
2019-03-31T13:04:35.421Z,27.38
2019-03-31T13:07:40.259Z,27.33
2019-03-31T13:10:44.644Z,26.29
2019-03-31T13:13:49.150Z,26.66
2019-03-31T13:16:53.637Z,27.12
2019-03-31T13:19:58.108Z,27.91
2019-03-31T13:23:03.184Z,27.84
2019-03-31T13:26:07.955Z,27.51
2019-03-31T13:29:12.456Z,27.67
2019-03-31T13:32:17.285Z,27.25
2019-03-31T13:35:21.894Z,24.99
2019-03-31T13:38:26.265Z,25.27
2019-03-31T13:41:30.985Z,25.42
2019-03-31T13:44:35.358Z,24.11
2019-03-31T13:47:39.788Z,23.76
2019-03-31T13:50:44.429Z,23.69
2019-03-31T13:53:49.233Z,24.34
2019-03-31T13:56:54.325Z,24.62
2019-03-31T13:59:58.853Z,24.81
2019-03-31T14:03:03.286Z,25.50
2019-03-31T14:06:07.773Z,26.17
2019-03-31T14:09:12.128Z,26.18
2019-03-31T14:12:16.578Z,26.15
2019-03-31T14:15:20.898Z,26.59
2019-03-31T14:18:26.133Z,26.07
2019-03-31T14:21:30.428Z,25.69
2019-03-31T14:24:35.167Z,24.85
2019-03-31T14:27:39.803Z,24.44
2019-03-31T14:30:44.127Z,24.19
2019-03-31T14:33:49.123Z,23.38
2019-03-31T14:36:53.492Z,23.21
2019-03-31T14:39:58.172Z,23.16
2019-03-31T14:43:02.793Z,22.93
2019-03-31T14:46:07.103Z,22.78
2019-03-31T14:49:11.409Z,23.13
2019-03-31T14:52:27.116Z,22.19
2019-03-31T14:55:22.270Z,22.34
2019-03-31T14:58:26.989Z,23.29
2019-03-31T15:01:31.340Z,22.80
2019-03-31T15:04:35.785Z,22.30
2019-03-31T15:07:40.509Z,21.93
2019-03-31T15:10:44.906Z,21.51
2019-03-31T15:13:49.230Z,21.83
2019-03-31T15:16:53.851Z,22.19
2019-03-31T15:19:59.667Z,21.92
2019-03-31T15:23:04.247Z,22.14
2019-03-31T15:26:09.117Z,22.03
2019-03-31T15:29:13.785Z,21.86
2019-03-31T15:32:19.561Z,21.83
2019-03-31T15:35:24.009Z,21.27
2019-03-31T15:38:28.507Z,21.55
2019-03-31T15:41:32.949Z,21.30
2019-03-31T15:44:37.928Z,22.14
2019-03-31T15:47:42.524Z,21.80
2019-03-31T15:50:47.010Z,21.78
2019-03-31T15:53:52.618Z,21.42
2019-03-31T15:56:57.055Z,21.18
2019-03-31T16:00:01.513Z,21.58
2019-03-31T16:03:06.004Z,21.35
2019-03-31T16:06:10.672Z,22.00
2019-03-31T16:09:23.317Z,22.13
2019-03-31T16:12:20.753Z,22.44
2019-03-31T16:15:24.546Z,22.69
2019-03-31T16:18:28.396Z,23.35
2019-03-31T16:21:32.322Z,23.59
2019-03-31T16:24:42.233Z,23.51
2019-03-31T16:27:46.481Z,24.35
2019-03-31T16:30:50.481Z,24.95
2019-03-31T16:33:55.875Z,25.10
2019-03-31T16:36:59.700Z,25.01
2019-03-31T16:40:03.938Z,25.80
2019-03-31T16:43:08.263Z,26.33
2019-03-31T16:46:13.021Z,26.81
2019-03-31T16:49:17.099Z,27.01
2019-03-31T16:52:20.976Z,27.17
2019-03-31T16:55:24.953Z,27.34
2019-03-31T16:58:28.961Z,27.51
2019-03-31T17:01:32.977Z,27.85
2019-03-31T17:04:37.160Z,28.04
2019-03-31T17:07:41.484Z,28.24
2019-03-31T17:10:45.333Z,28.45
2019-03-31T17:13:50.136Z,28.63
2019-03-31T17:16:54.129Z,28.73
2019-03-31T17:19:58.094Z,29.00
2019-03-31T17:23:02.026Z,29.30
2019-03-31T17:26:06.040Z,29.30
2019-03-31T17:29:09.927Z,29.67
2019-03-31T17:32:17.092Z,29.76
2019-03-31T17:35:21.339Z,29.73
2019-03-31T17:38:25.315Z,30.15
2019-03-31T17:41:29.726Z,30.22
2019-03-31T17:44:33.923Z,30.36
2019-03-31T17:47:39.495Z,30.75
2019-03-31T17:50:43.763Z,30.76
2019-03-31T17:53:47.879Z,31.21
2019-03-31T17:56:51.810Z,31.49
2019-03-31T17:59:56.028Z,31.70
2019-03-31T18:02:59.917Z,32.13
2019-03-31T18:06:05.180Z,32.33
2019-03-31T18:09:09.699Z,32.46
2019-03-31T18:12:13.655Z,32.84
2019-03-31T18:15:17.560Z,33.89
2019-03-31T18:18:24.911Z,34.27
2019-03-31T18:21:29.301Z,34.87
2019-03-31T18:24:33.189Z,34.90
2019-03-31T18:27:37.436Z,34.39
2019-03-31T18:30:41.481Z,35.46
2019-03-31T18:33:45.436Z,37.72
2019-03-31T18:36:49.795Z,38.55
2019-03-31T18:39:53.658Z,39.90
2019-03-31T18:42:58.202Z,41.62
2019-03-31T18:46:02.512Z,42.04
2019-03-31T18:49:06.546Z,43.24
2019-03-31T18:52:10.692Z,43.49
2019-03-31T18:55:28.849Z,44.91
2019-03-31T18:58:45.679Z,44.91
2019-03-31T19:01:58.192Z,44.46
2019-03-31T19:05:24.799Z,45.50
2019-03-31T19:08:50.908Z,46.06
2019-03-31T19:12:13.024Z,47.67
2019-03-31T19:15:31.803Z,48.45
2019-03-31T19:18:53.111Z,48.34
2019-03-31T19:22:23.971Z,49.00
2019-03-31T19:25:46.221Z,49.28
2019-03-31T19:29:06.904Z,49.99
2019-03-31T19:32:36.306Z,50.21
2019-03-31T19:35:59.331Z,50.15
2019-03-31T19:39:22.370Z,51.09
2019-03-31T19:42:54.278Z,52.02
2019-03-31T19:46:15.526Z,51.46
2019-03-31T19:49:38.796Z,51.67
2019-03-31T19:52:59.277Z,51.87
2019-03-31T19:56:18.720Z,51.40
2019-03-31T19:59:40.900Z,51.60
2019-03-31T20:02:56.428Z,51.93
2019-03-31T20:06:31.475Z,51.54
2019-03-31T20:09:43.994Z,51.94
2019-03-31T20:13:03.017Z,52.05
2019-03-31T20:16:23.606Z,51.68
2019-03-31T20:19:46.513Z,52.23
2019-03-31T20:23:07.785Z,52.93
2019-03-31T20:26:29.117Z,52.93
2019-03-31T20:29:51.903Z,52.46
2019-03-31T20:33:07.570Z,53.66
2019-03-31T20:36:18.320Z,52.65
2019-03-31T20:39:31.679Z,53.42
2019-03-31T20:43:15.545Z,53.26
2019-03-31T20:46:19.626Z,53.29
2019-03-31T20:49:23.665Z,52.73
2019-03-31T20:52:27.479Z,52.73
2019-03-31T20:55:31.362Z,51.92
2019-03-31T20:58:35.181Z,52.29
2019-03-31T21:01:39.156Z,52.97
2019-03-31T21:04:42.963Z,52.58
2019-03-31T21:07:46.812Z,52.98
2019-03-31T21:10:50.967Z,52.98
2019-03-31T21:13:57.144Z,52.67
2019-03-31T21:17:00.905Z,53.54
2019-03-31T21:20:05.256Z,53.86
2019-03-31T21:23:09.839Z,54.29
2019-03-31T21:26:13.925Z,54.68
2019-03-31T21:29:17.832Z,54.88
2019-03-31T21:32:21.764Z,54.80
2019-03-31T21:35:26.266Z,55.01
2019-03-31T21:38:30.528Z,55.20
2019-03-31T21:41:34.324Z,55.69
2019-03-31T21:44:38.481Z,55.88
2019-03-31T21:47:42.334Z,55.96
2019-03-31T21:50:46.153Z,55.61
2019-03-31T21:53:50.048Z,56.52
2019-03-31T21:56:53.893Z,57.07
2019-03-31T21:59:59.224Z,55.89
2019-03-31T22:03:03.460Z,56.21
2019-03-31T22:06:07.830Z,55.69
2019-03-31T22:09:12.345Z,56.37
2019-03-31T22:12:16.127Z,56.27
2019-03-31T22:15:20.049Z,56.08
2019-03-31T22:18:24.092Z,56.30
2019-03-31T22:21:27.992Z,55.94
2019-03-31T22:24:32.110Z,56.35
2019-03-31T22:27:36.576Z,56.41
2019-03-31T22:30:40.386Z,56.31
2019-03-31T22:33:44.591Z,57.18
2019-03-31T22:36:48.760Z,57.08
2019-03-31T22:39:52.884Z,56.85
2019-03-31T22:42:57.451Z,56.83
2019-03-31T22:46:01.356Z,57.08
2019-03-31T22:49:05.529Z,57.85
2019-03-31T22:52:09.397Z,57.39
2019-03-31T22:55:13.199Z,57.67
2019-03-31T22:58:17.364Z,56.68
2019-03-31T23:01:21.825Z,57.37
2019-03-31T23:04:25.835Z,56.85
2019-03-31T23:07:30.070Z,56.54
2019-03-31T23:10:34.275Z,57.68
2019-03-31T23:13:38.107Z,56.70
2019-03-31T23:16:42.493Z,56.98
2019-03-31T23:19:46.802Z,56.75
2019-03-31T23:22:50.990Z,56.46
2019-03-31T23:25:54.930Z,57.54
2019-03-31T23:28:58.892Z,57.40
2019-03-31T23:32:02.760Z,57.39
2019-03-31T23:35:07.498Z,57.55
2019-03-31T23:38:11.325Z,57.10
2019-03-31T23:41:15.316Z,57.23
2019-03-31T23:44:19.495Z,56.82
2019-03-31T23:47:23.400Z,56.54
2019-03-31T23:50:27.344Z,56.65
2019-03-31T23:53:31.272Z,57.03
2019-03-31T23:56:35.450Z,56.85
2019-03-31T23:59:39.283Z,57.25
